Time;durP1;ratioP1;P1;durP2;ratioP2;P2;SDS_P1;SDS_P2;PMS_P1;PMS_P2;Temp;Humidity;BMP_temperature;BMP_pressure;BME280_temperature;BME280_humidity;BME280_pressure;Samples;Min_cycle;Max_cycle;Signal;HPM_P1;HPM_P2
2022/10/23 00:00:33;;;;;;;29.05;9.70;;;;;;;;;;4954979;28;20178;-95
2022/10/23 00:02:59;;;;;;;26.27;7.85;;;;;;;;;;4937141;28;20222;-94
2022/10/23 00:05:26;;;;;;;19.60;7.30;;;;;;;;;;4931745;28;20031;-95
2022/10/23 00:07:56;;;;;;;26.70;7.63;;;;;;;;;;4964372;28;20027;-94
2022/10/23 00:10:23;;;;;;;18.52;7.35;;;;;;;;;;4953629;28;20107;-94
2022/10/23 00:12:50;;;;;;;17.55;6.57;;;;;;;;;;4967177;28;20034;-95
2022/10/23 00:15:17;;;;;;;26.98;7.50;;;;;;;;;;4935788;28;20047;-94
2022/10/23 00:17:43;;;;;;;22.40;7.78;;;;;;;;;;4965872;28;20027;-94
2022/10/23 00:20:10;;;;;;;26.45;8.38;;;;;;;;;;4949823;28;20499;-94
2022/10/23 00:22:36;;;;;;;28.48;8.55;;;;;;;;;;4933439;28;20042;-95
2022/10/23 00:25:02;;;;;;;33.38;8.77;;;;;;;;;;4963052;28;20023;-95
2022/10/23 00:27:28;;;;;;;28.63;8.13;;;;;;;;;;4931624;28;20038;-94
2022/10/23 00:29:54;;;;;;;19.00;8.90;;;;;;;;;;4951402;28;20046;-95
2022/10/23 00:32:20;;;;;;;27.70;9.05;;;;;;;;;;4932449;28;20045;-95
2022/10/23 00:34:46;;;;;;;40.88;9.98;;;;;;;;;;4944283;28;20078;-95
2022/10/23 00:37:12;;;;;;;36.03;9.45;;;;;;;;;;4929879;28;20046;-95
2022/10/23 00:39:38;;;;;;;35.92;10.57;;;;;;;;;;4951857;28;20035;-94
2022/10/23 00:42:04;;;;;;;27.70;9.65;;;;;;;;;;4951315;28;20439;-93
2022/10/23 00:44:30;;;;;;;27.23;10.02;;;;;;;;;;4932616;28;20545;-94
2022/10/23 00:46:57;;;;;;;32.95;9.98;;;;;;;;;;4960434;28;20123;-95
2022/10/23 00:49:24;;;;;;;24.25;10.77;;;;;;;;;;4948654;28;20035;-95
2022/10/23 00:51:52;;;;;;;36.60;10.40;;;;;;;;;;4949281;28;20042;-95
2022/10/23 00:54:21;;;;;;;35.80;9.80;;;;;;;;;;4956122;28;20061;-95
2022/10/23 00:56:47;;;;;;;37.83;9.25;;;;;;;;;;4946616;28;20038;-95
2022/10/23 00:59:13;;;;;;;31.83;9.38;;;;;;;;;;4929233;28;20088;-95
2022/10/23 01:01:40;;;;;;;34.42;9.63;;;;;;;;;;4951000;28;20026;-95
2022/10/23 01:04:07;;;;;;;32.20;9.27;;;;;;;;;;4946215;28;20054;-95
2022/10/23 01:06:37;;;;;;;26.30;9.82;;;;;;;;;;4938182;28;20065;-95
2022/10/23 01:09:12;;;;;;;31.90;9.43;;;;;;;;;;4951004;28;20027;-95
2022/10/23 01:11:38;;;;;;;23.90;7.78;;;;;;;;;;4957296;28;20174;-95
2022/10/23 01:14:23;;;;;;;31.33;8.13;;;;;;;;;;4952877;28;20557;-96
2022/10/23 01:16:49;;;;;;;20.35;8.52;;;;;;;;;;4949058;28;20042;-95
2022/10/23 01:19:18;;;;;;;29.60;8.73;;;;;;;;;;4952866;28;20054;-95
2022/10/23 01:21:59;;;;;;;21.55;8.48;;;;;;;;;;4966606;28;20530;-95
2022/10/23 01:24:28;;;;;;;25.70;8.63;;;;;;;;;;4964117;28;20109;-94
2022/10/23 01:27:12;;;;;;;29.55;8.75;;;;;;;;;;4958000;28;20203;-94
2022/10/23 01:29:41;;;;;;;25.98;8.93;;;;;;;;;;4955465;28;20097;-95
2022/10/23 01:32:19;;;;;;;29.25;9.90;;;;;;;;;;4946052;28;20917;-95
2022/10/23 01:34:51;;;;;;;27.55;11.05;;;;;;;;;;4964008;28;20030;-95
2022/10/23 01:37:23;;;;;;;26.92;10.40;;;;;;;;;;4955265;28;20062;-95
2022/10/23 01:39:52;;;;;;;23.27;9.82;;;;;;;;;;4950112;28;20035;-95
2022/10/23 01:42:21;;;;;;;24.63;9.90;;;;;;;;;;4958342;28;20406;-94
2022/10/23 01:44:50;;;;;;;28.85;10.23;;;;;;;;;;4948284;28;20279;-95
2022/10/23 01:47:18;;;;;;;22.17;10.07;;;;;;;;;;4962565;28;20089;-95
2022/10/23 01:49:45;;;;;;;30.10;10.48;;;;;;;;;;4946616;28;20479;-95
2022/10/23 01:52:12;;;;;;;28.30;10.70;;;;;;;;;;4966678;28;20039;-95
2022/10/23 01:54:40;;;;;;;27.73;9.20;;;;;;;;;;4958520;28;20177;-95
2022/10/23 01:57:08;;;;;;;20.83;10.57;;;;;;;;;;4952156;28;20038;-94
2022/10/23 01:59:36;;;;;;;31.48;10.35;;;;;;;;;;4946956;28;20034;-95
2022/10/23 02:02:02;;;;;;;29.75;10.77;;;;;;;;;;4944064;28;20388;-94
2022/10/23 02:04:40;;;;;;;30.55;10.30;;;;;;;;;;4950533;28;20038;-94
2022/10/23 02:07:06;;;;;;;48.20;11.02;;;;;;;;;;4950657;28;20033;-94
2022/10/23 02:09:32;;;;;;;52.40;10.57;;;;;;;;;;4951936;28;20031;-96
2022/10/23 02:12:04;;;;;;;56.90;10.60;;;;;;;;;;4945553;28;20050;-95
2022/10/23 02:14:34;;;;;;;119.57;12.02;;;;;;;;;;4949036;28;20498;-94
2022/10/23 02:17:06;;;;;;;69.35;9.68;;;;;;;;;;4956661;28;20546;-94
2022/10/23 02:19:35;;;;;;;71.93;8.85;;;;;;;;;;4945932;28;20475;-96
2022/10/23 02:22:10;;;;;;;97.22;10.25;;;;;;;;;;4963417;28;20051;-94
2022/10/23 02:24:40;;;;;;;81.18;9.55;;;;;;;;;;4948690;28;20023;-95
2022/10/23 02:27:14;;;;;;;51.28;8.85;;;;;;;;;;4953932;28;20031;-95
2022/10/23 02:29:45;;;;;;;97.78;9.85;;;;;;;;;;4946681;28;20031;-95
2022/10/23 02:32:11;;;;;;;81.40;8.07;;;;;;;;;;4943550;28;20034;-94
2022/10/23 02:34:38;;;;;;;84.43;9.02;;;;;;;;;;4964681;28;20037;-95
2022/10/23 02:37:04;;;;;;;105.00;8.43;;;;;;;;;;4948455;28;20142;-94
2022/10/23 02:39:30;;;;;;;78.72;9.13;;;;;;;;;;4947298;28;20615;-94
2022/10/23 02:42:14;;;;;;;68.43;8.15;;;;;;;;;;4950701;28;20234;-95
2022/10/23 02:45:06;;;;;;;45.40;8.20;;;;;;;;;;4963317;28;20058;-94
2022/10/23 02:47:46;;;;;;;77.85;10.05;;;;;;;;;;4923762;28;20055;-93
2022/10/23 02:50:43;;;;;;;44.67;8.25;;;;;;;;;;4940133;28;20075;-94
2022/10/23 02:53:18;;;;;;;42.55;7.72;;;;;;;;;;4948026;28;20570;-95
2022/10/23 02:56:01;;;;;;;74.73;7.60;;;;;;;;;;4940704;28;20150;-95
2022/10/23 02:58:33;;;;;;;49.63;7.15;;;;;;;;;;4949411;28;20078;-95
2022/10/23 03:01:04;;;;;;;62.83;8.13;;;;;;;;;;4956724;28;20129;-95
2022/10/23 03:03:32;;;;;;;95.63;9.35;;;;;;;;;;4941764;28;20023;-95
2022/10/23 03:05:58;;;;;;;50.53;8.00;;;;;;;;;;4945646;28;20035;-95
2022/10/23 03:08:24;;;;;;;87.43;8.60;;;;;;;;;;4933086;28;20066;-95
2022/10/23 03:10:50;;;;;;;84.40;9.48;;;;;;;;;;4949036;28;20032;-95
2022/10/23 03:13:16;;;;;;;75.90;9.82;;;;;;;;;;4948728;28;20094;-95
2022/10/23 03:15:43;;;;;;;18.33;7.03;;;;;;;;;;4930879;28;20070;-95
2022/10/23 03:18:09;;;;;;;24.45;8.30;;;;;;;;;;4948287;28;20039;-95
2022/10/23 03:20:35;;;;;;;10.82;6.47;;;;;;;;;;4931362;28;20177;-95
2022/10/23 03:23:01;;;;;;;13.05;6.90;;;;;;;;;;4921233;28;20031;-96
2022/10/23 03:25:27;;;;;;;27.85;9.77;;;;;;;;;;4929616;28;20055;-95
2022/10/23 03:27:53;;;;;;;20.42;9.25;;;;;;;;;;4958605;28;20398;-95
2022/10/23 03:30:20;;;;;;;42.97;11.27;;;;;;;;;;4947236;28;20053;-95
2022/10/23 03:32:46;;;;;;;28.00;10.80;;;;;;;;;;4948969;28;20023;-95
2022/10/23 03:35:12;;;;;;;25.90;12.10;;;;;;;;;;4931573;28;20239;-94
2022/10/23 03:37:38;;;;;;;38.67;12.88;;;;;;;;;;4925230;29;20039;-95
2022/10/23 03:40:04;;;;;;;44.25;14.60;;;;;;;;;;4928188;28;20043;-95
2022/10/23 03:42:30;;;;;;;34.28;14.18;;;;;;;;;;4932608;28;20031;-95
2022/10/23 03:44:56;;;;;;;34.83;13.85;;;;;;;;;;4929492;28;20028;-95
2022/10/23 03:47:22;;;;;;;35.10;13.63;;;;;;;;;;4928929;28;20050;-95
2022/10/23 03:49:48;;;;;;;43.03;14.05;;;;;;;;;;4938671;28;20357;-95
2022/10/23 03:52:14;;;;;;;38.63;14.02;;;;;;;;;;4957702;28;20183;-96
2022/10/23 03:54:40;;;;;;;36.00;13.82;;;;;;;;;;4942721;28;20624;-95
2022/10/23 03:57:06;;;;;;;30.42;12.75;;;;;;;;;;4930771;28;20031;-96
2022/10/23 03:59:32;;;;;;;31.40;13.38;;;;;;;;;;4951099;28;20063;-95
2022/10/23 04:01:58;;;;;;;26.63;12.65;;;;;;;;;;4942797;28;20509;-95
2022/10/23 04:04:24;;;;;;;32.92;14.77;;;;;;;;;;4939448;28;20064;-96
2022/10/23 04:06:50;;;;;;;28.45;13.77;;;;;;;;;;4942857;28;20027;-95
2022/10/23 04:09:16;;;;;;;36.40;14.48;;;;;;;;;;4957910;28;20039;-95
2022/10/23 04:11:42;;;;;;;29.63;13.80;;;;;;;;;;4936487;28;20086;-95
2022/10/23 04:14:11;;;;;;;33.72;13.20;;;;;;;;;;4926431;29;20032;-95
2022/10/23 04:16:37;;;;;;;38.83;14.07;;;;;;;;;;4957954;28;20023;-95
2022/10/23 04:19:03;;;;;;;26.70;12.63;;;;;;;;;;4955277;28;20480;-95
2022/10/23 04:21:29;;;;;;;26.33;13.90;;;;;;;;;;4943489;28;20040;-95
2022/10/23 04:23:55;;;;;;;36.28;14.52;;;;;;;;;;4943606;28;20075;-95
2022/10/23 04:26:21;;;;;;;32.08;14.27;;;;;;;;;;4940808;28;20487;-96
2022/10/23 04:28:47;;;;;;;34.92;14.18;;;;;;;;;;4942438;28;20257;-94
2022/10/23 04:31:13;;;;;;;33.63;13.65;;;;;;;;;;4946890;28;20035;-96
2022/10/23 04:33:39;;;;;;;26.33;14.07;;;;;;;;;;4931763;28;20074;-95
2022/10/23 04:36:05;;;;;;;39.88;14.48;;;;;;;;;;4942138;28;20039;-95
2022/10/23 04:38:31;;;;;;;36.92;15.63;;;;;;;;;;4942123;28;20035;-95
2022/10/23 04:40:57;;;;;;;32.78;15.50;;;;;;;;;;4946550;28;20093;-95
2022/10/23 04:43:23;;;;;;;35.50;15.98;;;;;;;;;;4942591;28;20082;-95
2022/10/23 04:45:49;;;;;;;33.40;15.32;;;;;;;;;;4937990;28;20050;-94
2022/10/23 04:48:15;;;;;;;34.92;15.30;;;;;;;;;;4943236;28;20051;-95
2022/10/23 04:50:41;;;;;;;42.40;15.80;;;;;;;;;;4942356;28;20042;-95
2022/10/23 04:53:08;;;;;;;35.40;14.82;;;;;;;;;;4928133;29;20045;-95
2022/10/23 04:55:34;;;;;;;30.60;15.25;;;;;;;;;;4951454;28;20083;-94
2022/10/23 04:58:00;;;;;;;32.80;14.32;;;;;;;;;;4933222;28;20083;-96
2022/10/23 05:00:26;;;;;;;34.47;13.73;;;;;;;;;;4934108;28;20045;-95
2022/10/23 05:02:52;;;;;;;38.03;14.48;;;;;;;;;;4929450;28;20179;-95
2022/10/23 05:05:18;;;;;;;35.72;15.65;;;;;;;;;;4922523;29;20114;-95
2022/10/23 05:07:44;;;;;;;30.40;14.45;;;;;;;;;;4929781;28;20050;-94
2022/10/23 05:10:10;;;;;;;34.63;14.65;;;;;;;;;;4929238;28;20126;-95
2022/10/23 05:12:36;;;;;;;39.17;14.68;;;;;;;;;;4928871;28;20130;-95
2022/10/23 05:15:02;;;;;;;38.55;14.60;;;;;;;;;;4921737;28;20183;-94
2022/10/23 05:17:37;;;;;;;29.58;13.65;;;;;;;;;;4928107;29;21741;-95
2022/10/23 05:20:05;;;;;;;27.42;14.32;;;;;;;;;;4942746;28;20023;-95
2022/10/23 05:22:35;;;;;;;28.52;13.32;;;;;;;;;;4947935;28;20031;-95
2022/10/23 05:25:01;;;;;;;30.85;14.07;;;;;;;;;;4950255;28;20034;-95
2022/10/23 05:27:27;;;;;;;30.25;14.27;;;;;;;;;;4930601;28;20078;-95
2022/10/23 05:29:53;;;;;;;35.08;13.40;;;;;;;;;;4927015;29;20466;-95
2022/10/23 05:32:20;;;;;;;35.10;14.20;;;;;;;;;;4927251;29;20028;-94
2022/10/23 05:34:46;;;;;;;33.65;15.00;;;;;;;;;;4944563;28;20039;-95
2022/10/23 05:37:13;;;;;;;31.48;14.00;;;;;;;;;;4928314;28;20043;-95
2022/10/23 05:39:39;;;;;;;35.75;15.13;;;;;;;;;;4947931;28;20383;-95
2022/10/23 05:42:05;;;;;;;33.63;14.73;;;;;;;;;;4928406;28;20027;-95
2022/10/23 05:44:31;;;;;;;46.15;16.17;;;;;;;;;;4925235;29;20031;-95
2022/10/23 05:46:57;;;;;;;36.05;15.52;;;;;;;;;;4929142;28;20031;-95
2022/10/23 05:49:24;;;;;;;36.03;15.32;;;;;;;;;;4934295;28;20054;-95
2022/10/23 05:51:50;;;;;;;38.13;15.75;;;;;;;;;;4946621;28;20038;-94
2022/10/23 05:54:16;;;;;;;48.95;15.98;;;;;;;;;;4932121;28;20034;-96
2022/10/23 05:56:42;;;;;;;44.63;15.05;;;;;;;;;;4937752;28;20034;-95
2022/10/23 05:59:09;;;;;;;38.92;14.77;;;;;;;;;;4945474;28;20121;-95
2022/10/23 06:01:35;;;;;;;52.03;16.80;;;;;;;;;;4946464;28;20710;-94
2022/10/23 06:04:01;;;;;;;43.47;15.77;;;;;;;;;;4965244;28;20082;-95
2022/10/23 06:06:29;;;;;;;41.80;15.80;;;;;;;;;;4949530;28;20394;-94
2022/10/23 06:08:55;;;;;;;41.05;17.08;;;;;;;;;;4935097;28;20492;-94
2022/10/23 06:11:21;;;;;;;55.17;16.48;;;;;;;;;;4959641;28;20049;-94
2022/10/23 06:13:48;;;;;;;45.92;15.82;;;;;;;;;;4954845;28;20044;-94
2022/10/23 06:16:16;;;;;;;43.78;16.23;;;;;;;;;;4952513;28;20033;-94
2022/10/23 06:18:42;;;;;;;37.42;16.98;;;;;;;;;;4953945;28;20101;-95
2022/10/23 06:21:11;;;;;;;48.53;16.33;;;;;;;;;;4955341;28;20031;-94
2022/10/23 06:23:37;;;;;;;42.00;15.35;;;;;;;;;;4939386;28;20039;-94
2022/10/23 06:26:04;;;;;;;41.40;15.90;;;;;;;;;;4950998;28;20480;-95
2022/10/23 06:28:30;;;;;;;47.00;16.73;;;;;;;;;;4947440;28;20375;-94
2022/10/23 06:30:56;;;;;;;41.38;16.42;;;;;;;;;;4949604;28;20526;-95
2022/10/23 06:33:22;;;;;;;35.75;15.25;;;;;;;;;;4948464;28;20050;-94
2022/10/23 06:35:50;;;;;;;35.45;15.77;;;;;;;;;;4963140;28;20406;-95
2022/10/23 06:38:16;;;;;;;40.72;15.23;;;;;;;;;;4935768;28;20043;-94
2022/10/23 06:40:44;;;;;;;42.90;16.92;;;;;;;;;;4949101;28;20034;-96
2022/10/23 06:43:10;;;;;;;44.00;16.50;;;;;;;;;;4936752;28;20241;-96
2022/10/23 06:45:36;;;;;;;34.70;15.20;;;;;;;;;;4933285;28;20084;-96
2022/10/23 06:48:02;;;;;;;37.35;15.05;;;;;;;;;;4943544;28;20043;-96
2022/10/23 06:50:31;;;;;;;38.83;15.40;;;;;;;;;;4941900;28;20034;-95
2022/10/23 06:52:57;;;;;;;32.40;14.40;;;;;;;;;;4949350;28;20499;-96
2022/10/23 06:55:23;;;;;;;48.17;16.17;;;;;;;;;;4935068;28;20374;-96
2022/10/23 06:57:49;;;;;;;35.55;14.77;;;;;;;;;;4945001;28;20453;-96
2022/10/23 07:00:16;;;;;;;31.65;15.02;;;;;;;;;;4962976;28;20486;-95
2022/10/23 07:02:42;;;;;;;40.55;15.52;;;;;;;;;;4961165;28;20039;-96
2022/10/23 07:05:08;;;;;;;32.55;14.57;;;;;;;;;;4946513;28;20038;-96
2022/10/23 07:07:34;;;;;;;39.92;14.48;;;;;;;;;;4954631;28;20502;-96
2022/10/23 07:10:00;;;;;;;34.58;14.45;;;;;;;;;;4945813;28;20576;-96
2022/10/23 07:12:28;;;;;;;38.13;13.40;;;;;;;;;;4934752;28;20470;-96
2022/10/23 07:14:54;;;;;;;41.47;14.85;;;;;;;;;;4946919;28;20453;-96
2022/10/23 07:17:20;;;;;;;40.15;14.68;;;;;;;;;;4952900;28;20090;-96
2022/10/23 07:19:47;;;;;;;32.17;15.45;;;;;;;;;;4945063;28;20127;-95
2022/10/23 07:22:13;;;;;;;38.15;14.40;;;;;;;;;;4958798;28;20749;-95
2022/10/23 07:24:46;;;;;;;33.28;14.30;;;;;;;;;;4948393;28;20045;-96
2022/10/23 07:27:12;;;;;;;31.65;13.68;;;;;;;;;;4947579;28;20616;-96
2022/10/23 07:29:38;;;;;;;31.13;13.73;;;;;;;;;;4948963;28;20035;-96
2022/10/23 07:32:05;;;;;;;36.40;13.57;;;;;;;;;;4929688;28;20618;-95
2022/10/23 07:34:31;;;;;;;29.45;13.30;;;;;;;;;;4959276;28;20209;-96
2022/10/23 07:36:57;;;;;;;37.40;13.48;;;;;;;;;;4947658;28;20422;-96
2022/10/23 07:39:23;;;;;;;39.53;12.93;;;;;;;;;;4951748;28;20039;-96
2022/10/23 07:41:50;;;;;;;36.05;12.82;;;;;;;;;;4935721;28;20035;-96
2022/10/23 07:44:16;;;;;;;32.75;12.70;;;;;;;;;;4958988;28;20419;-96
2022/10/23 07:46:42;;;;;;;38.83;13.27;;;;;;;;;;4952515;28;20034;-96
2022/10/23 07:49:09;;;;;;;36.47;13.68;;;;;;;;;;4934768;28;20047;-96
2022/10/23 07:51:42;;;;;;;39.78;13.82;;;;;;;;;;4908781;29;20031;-96
2022/10/23 07:54:10;;;;;;;29.30;12.30;;;;;;;;;;4914526;29;20745;-95
2022/10/23 07:56:36;;;;;;;36.92;13.60;;;;;;;;;;4927992;29;20349;-96
2022/10/23 07:59:03;;;;;;;32.95;12.95;;;;;;;;;;4911886;29;20048;-96
2022/10/23 08:01:48;;;;;;;28.75;12.52;;;;;;;;;;4928098;29;20032;-96
2022/10/23 08:04:14;;;;;;;30.42;11.82;;;;;;;;;;4907891;29;20094;-96
2022/10/23 08:06:40;;;;;;;31.67;12.93;;;;;;;;;;4922519;29;20032;-96
2022/10/23 08:09:06;;;;;;;39.08;12.73;;;;;;;;;;4910971;29;20031;-96
2022/10/23 08:11:34;;;;;;;38.05;13.27;;;;;;;;;;4902069;29;20070;-95
2022/10/23 08:14:04;;;;;;;36.78;14.45;;;;;;;;;;4909440;29;20388;-96
2022/10/23 08:16:30;;;;;;;38.00;13.68;;;;;;;;;;4929263;29;20134;-96
2022/10/23 08:18:56;;;;;;;38.70;15.18;;;;;;;;;;4898949;29;20036;-96
2022/10/23 08:21:22;;;;;;;35.03;14.45;;;;;;;;;;4912540;29;20039;-96
2022/10/23 08:23:49;;;;;;;37.00;16.02;;;;;;;;;;4909356;29;20036;-96
2022/10/23 08:26:20;;;;;;;41.22;14.32;;;;;;;;;;4933996;29;20587;-96
2022/10/23 08:28:46;;;;;;;33.95;14.18;;;;;;;;;;4925118;29;20039;-96
2022/10/23 08:31:13;;;;;;;36.00;14.32;;;;;;;;;;4928006;29;20122;-95
2022/10/23 08:33:39;;;;;;;35.17;14.00;;;;;;;;;;4927126;29;20040;-96
2022/10/23 08:36:14;;;;;;;30.92;13.38;;;;;;;;;;4930613;29;20087;-96
2022/10/23 08:38:40;;;;;;;34.95;15.38;;;;;;;;;;4925923;29;20419;-96
2022/10/23 08:41:15;;;;;;;33.08;13.23;;;;;;;;;;4944248;28;20453;-96
2022/10/23 08:43:45;;;;;;;31.67;12.13;;;;;;;;;;4908703;29;20447;-95
2022/10/23 08:46:13;;;;;;;39.10;13.80;;;;;;;;;;4943571;28;20019;-96
2022/10/23 08:48:56;;;;;;;30.25;11.30;;;;;;;;;;4928981;28;20479;-96
2022/10/23 08:51:28;;;;;;;27.88;11.07;;;;;;;;;;4945129;28;20055;-96
2022/10/23 08:54:03;;;;;;;30.60;11.68;;;;;;;;;;4961032;28;20391;-96
2022/10/23 08:56:34;;;;;;;33.50;11.60;;;;;;;;;;4959797;28;20451;-96
2022/10/23 08:59:21;;;;;;;24.55;10.80;;;;;;;;;;4943213;28;20301;-95
2022/10/23 09:02:07;;;;;;;26.63;10.95;;;;;;;;;;4941189;28;20041;-96
2022/10/23 09:04:34;;;;;;;26.63;11.15;;;;;;;;;;4950813;28;20042;-96
2022/10/23 09:07:03;;;;;;;28.98;10.63;;;;;;;;;;4939358;28;20396;-96
2022/10/23 09:09:30;;;;;;;30.73;10.93;;;;;;;;;;4944727;28;20035;-95
2022/10/23 09:11:56;;;;;;;22.48;9.93;;;;;;;;;;4946058;28;20050;-96
2022/10/23 09:14:23;;;;;;;25.42;9.95;;;;;;;;;;4947856;28;20121;-96
2022/10/23 09:16:59;;;;;;;21.88;10.00;;;;;;;;;;4951005;28;20431;-96
2022/10/23 09:19:28;;;;;;;29.42;11.13;;;;;;;;;;4945873;28;20151;-96
2022/10/23 09:21:55;;;;;;;27.40;9.85;;;;;;;;;;4951316;28;20437;-95
2022/10/23 09:24:22;;;;;;;30.83;9.90;;;;;;;;;;4929471;28;20435;-96
2022/10/23 09:26:50;;;;;;;22.95;9.98;;;;;;;;;;4948740;28;20323;-96
2022/10/23 09:29:19;;;;;;;18.88;8.48;;;;;;;;;;4931547;28;20387;-96
2022/10/23 09:31:52;;;;;;;21.00;8.85;;;;;;;;;;4946711;28;20049;-96
2022/10/23 09:34:21;;;;;;;19.30;8.77;;;;;;;;;;4949823;28;20047;-96
2022/10/23 09:36:57;;;;;;;18.67;8.55;;;;;;;;;;4945920;28;20027;-96
2022/10/23 09:39:23;;;;;;;;;;;;;;;;;;4956179;28;20070;-96
2022/10/23 09:41:49;;;;;;;18.95;8.50;;;;;;;;;;4949151;28;19949;-95
2022/10/23 09:44:24;;;;;;;17.60;9.35;;;;;;;;;;4965706;28;20028;-96
2022/10/23 09:46:52;;;;;;;17.02;8.20;;;;;;;;;;4932051;29;20479;-96
2022/10/23 09:49:21;;;;;;;18.35;8.45;;;;;;;;;;4943984;28;20051;-96
2022/10/23 09:52:06;;;;;;;12.55;7.05;;;;;;;;;;4959835;28;20035;-96
2022/10/23 09:54:35;;;;;;;18.35;8.70;;;;;;;;;;4959833;28;20053;-96
2022/10/23 09:57:14;;;;;;;14.45;7.63;;;;;;;;;;4945740;28;20082;-96
2022/10/23 09:59:40;;;;;;;13.85;7.10;;;;;;;;;;4965763;28;20078;-96
2022/10/23 10:02:19;;;;;;;28.02;9.57;;;;;;;;;;4965687;28;20042;-96
2022/10/23 10:04:45;;;;;;;14.70;7.07;;;;;;;;;;4958670;28;20479;-96
2022/10/23 10:07:20;;;;;;;16.70;8.82;;;;;;;;;;4933737;28;20550;-96
2022/10/23 10:09:46;;;;;;;15.73;6.43;;;;;;;;;;4950239;28;20030;-96
2022/10/23 10:12:12;;;;;;;16.23;6.43;;;;;;;;;;4948004;28;20070;-96
2022/10/23 10:14:43;;;;;;;23.42;8.45;;;;;;;;;;4950350;28;20031;-96
2022/10/23 10:17:38;;;;;;;13.55;6.75;;;;;;;;;;4963175;28;20039;-96
2022/10/23 10:20:04;;;;;;;19.02;6.68;;;;;;;;;;4940751;28;20131;-96
2022/10/23 10:22:30;;;;;;;17.95;7.90;;;;;;;;;;4949442;28;20016;-96
2022/10/23 10:25:00;;;;;;;16.88;7.45;;;;;;;;;;4951110;28;20028;-96
2022/10/23 10:27:26;;;;;;;14.45;6.85;;;;;;;;;;4949640;28;20501;-96
2022/10/23 10:30:05;;;;;;;16.83;6.95;;;;;;;;;;4949851;28;20035;-96
2022/10/23 10:32:50;;;;;;;14.02;6.72;;;;;;;;;;4966862;28;20377;-95
2022/10/23 10:35:22;;;;;;;18.92;5.97;;;;;;;;;;4949233;29;20530;-95
2022/10/23 10:38:07;;;;;;;13.63;5.88;;;;;;;;;;4939105;28;20046;-95
2022/10/23 10:40:33;;;;;;;14.23;5.22;;;;;;;;;;4946824;28;20020;-96
2022/10/23 10:43:08;;;;;;;17.67;6.85;;;;;;;;;;4947049;28;20047;-96
2022/10/23 10:45:38;;;;;;;13.65;5.85;;;;;;;;;;4944340;28;20024;-96
2022/10/23 10:48:13;;;;;;;11.68;5.25;;;;;;;;;;4925760;28;20064;-96
2022/10/23 10:50:48;;;;;;;13.32;5.82;;;;;;;;;;4946215;28;20047;-96
2022/10/23 10:53:19;;;;;;;16.30;5.63;;;;;;;;;;4943633;28;20127;-96
2022/10/23 10:55:48;;;;;;;10.57;5.25;;;;;;;;;;4951448;28;20039;-96
2022/10/23 10:58:20;;;;;;;11.65;5.10;;;;;;;;;;4962324;28;20479;-96
2022/10/23 11:00:59;;;;;;;13.75;5.53;;;;;;;;;;4942488;28;20024;-96
2022/10/23 11:03:54;;;;;;;8.43;4.60;;;;;;;;;;4946456;28;20414;-96
2022/10/23 11:06:22;;;;;;;10.90;5.38;;;;;;;;;;4930924;28;20039;-96
2022/10/23 11:08:48;;;;;;;12.93;4.72;;;;;;;;;;4936059;28;20067;-96
2022/10/23 11:11:24;;;;;;;10.60;4.80;;;;;;;;;;4930991;28;20047;-96
2022/10/23 11:13:52;;;;;;;10.02;4.13;;;;;;;;;;4963364;28;20030;-96
2022/10/23 11:16:26;;;;;;;17.52;5.07;;;;;;;;;;4938612;29;20090;-96
2022/10/23 11:19:04;;;;;;;16.35;4.60;;;;;;;;;;4949156;28;20043;-96
2022/10/23 11:22:24;;;;;;;;;;;;;;;;;;;;;
2022/10/23 11:25:05;;;;;;;11.02;4.45;;;;;;;;;;4927295;28;20172;-96
2022/10/23 11:27:42;;;;;;;10.00;4.43;;;;;;;;;;4930766;29;20491;-96
2022/10/23 11:30:23;;;;;;;14.20;4.85;;;;;;;;;;4959993;28;20039;-96
2022/10/23 11:33:08;;;;;;;16.10;4.22;;;;;;;;;;4960538;28;20179;-96
2022/10/23 11:35:46;;;;;;;10.52;4.35;;;;;;;;;;4959252;28;20040;-95
2022/10/23 11:38:12;;;;;;;13.95;4.13;;;;;;;;;;4938646;28;20030;-96
2022/10/23 11:40:44;;;;;;;13.30;5.10;;;;;;;;;;4941225;28;20032;-96
2022/10/23 11:43:27;;;;;;;11.13;3.65;;;;;;;;;;4937075;28;20488;-96
2022/10/23 11:46:19;;;;;;;10.30;3.88;;;;;;;;;;4941506;28;20505;-96
2022/10/23 11:48:53;;;;;;;11.38;4.47;;;;;;;;;;4941180;28;20047;-96
2022/10/23 11:51:25;;;;;;;11.05;4.30;;;;;;;;;;4933767;28;20047;-96
2022/10/23 11:53:51;;;;;;;10.38;3.92;;;;;;;;;;4958447;28;20461;-96
2022/10/23 11:56:26;;;;;;;6.55;3.47;;;;;;;;;;4937640;28;20085;-96
2022/10/23 11:59:06;;;;;;;9.52;3.67;;;;;;;;;;4951676;28;20055;-96
2022/10/23 12:01:51;;;;;;;8.45;3.75;;;;;;;;;;4965401;28;20077;-96
2022/10/23 12:04:37;;;;;;;;;;;;;;;;;;;;;
2022/10/23 12:07:14;;;;;;;11.20;4.10;;;;;;;;;;4969667;28;20386;-96
2022/10/23 12:16:18;;;;;;;10.77;5.40;;;;;;;;;;4950203;28;20039;-96
2022/10/23 12:19:03;;;;;;;;;;;;;;;;;;;;;
2022/10/23 12:24:52;;;;;;;5.93;3.70;;;;;;;;;;4963607;28;20042;-96
2022/10/23 12:28:04;;;;;;;;;;;;;;;;;;;;;
2022/10/23 12:31:05;;;;;;;;;;;;;;;;;;;;;
2022/10/23 12:33:56;;;;;;;7.60;4.07;;;;;;;;;;4963060;28;20049;-96
2022/10/23 12:36:40;;;;;;;8.55;4.07;;;;;;;;;;4938586;28;20071;-96
2022/10/23 12:42:32;;;;;;;9.38;3.72;;;;;;;;;;4941522;28;20109;-96
2022/10/23 12:45:31;;;;;;;12.35;4.13;;;;;;;;;;4925393;28;20039;-95
2022/10/23 12:48:35;;;;;;;9.13;3.85;;;;;;;;;;4926709;29;20042;-95
2022/10/23 12:51:01;;;;;;;10.65;3.90;;;;;;;;;;4926177;28;20059;-96
2022/10/23 12:54:04;;;;;;;12.80;3.80;;;;;;;;;;4923876;29;20027;-96
2022/10/23 12:56:38;;;;;;;11.88;4.47;;;;;;;;;;4937776;28;20098;-96
2022/10/23 12:59:17;;;;;;;8.27;3.72;;;;;;;;;;4937351;28;20043;-95
2022/10/23 13:02:12;;;;;;;8.98;3.95;;;;;;;;;;4946158;28;20073;-95
2022/10/23 13:05:12;;;;;;;;;;;;;;;;;;;;;
2022/10/23 13:07:42;;;;;;;8.45;3.55;;;;;;;;;;4948288;28;20272;-95
2022/10/23 13:10:14;;;;;;;9.93;3.92;;;;;;;;;;4947539;28;20043;-95
2022/10/23 13:13:05;;;;;;;8.10;3.63;;;;;;;;;;4964230;28;20035;-95
2022/10/23 13:19:11;;;;;;;8.18;3.55;;;;;;;;;;4926124;29;20180;-96
2022/10/23 13:21:57;;;;;;;11.75;3.50;;;;;;;;;;4891644;29;20774;-96
2022/10/23 13:24:34;;;;;;;8.15;3.60;;;;;;;;;;4926509;28;20043;-95
2022/10/23 13:27:00;;;;;;;6.00;2.92;;;;;;;;;;4930289;28;20035;-96
2022/10/23 13:29:28;;;;;;;12.55;3.13;;;;;;;;;;4910155;28;20515;-95
2022/10/23 13:31:58;;;;;;;4.13;2.65;;;;;;;;;;4928397;29;20246;-95
2022/10/23 13:34:35;;;;;;;16.20;3.30;;;;;;;;;;4926682;29;20439;-96
2022/10/23 13:40:32;;;;;;;11.60;3.53;;;;;;;;;;4893279;28;20056;-95
2022/10/23 13:43:22;;;;;;;9.52;3.13;;;;;;;;;;4909004;29;20241;-95
2022/10/23 13:46:35;;;;;;;9.85;4.75;;;;;;;;;;4910676;29;20474;-96
2022/10/23 13:52:51;;;;;;;8.90;3.47;;;;;;;;;;4923616;29;20198;-96
2022/10/23 13:55:24;;;;;;;12.38;4.28;;;;;;;;;;4918451;28;20046;-95
2022/10/23 13:57:51;;;;;;;10.60;3.65;;;;;;;;;;4938852;28;20115;-96
2022/10/23 14:00:17;;;;;;;9.13;3.55;;;;;;;;;;4913920;29;20035;-95
2022/10/23 14:02:43;;;;;;;10.38;4.88;;;;;;;;;;4932171;29;20023;-96
2022/10/23 14:05:16;;;;;;;13.13;4.15;;;;;;;;;;4932797;28;20146;-96
2022/10/23 14:08:44;;;;;;;7.45;3.38;;;;;;;;;;4933827;29;20043;-96
2022/10/23 14:14:53;;;;;;;10.70;3.60;;;;;;;;;;4869936;29;20085;-96
2022/10/23 14:20:39;;;;;;;12.18;4.05;;;;;;;;;;4817668;29;20057;-95
2022/10/23 14:26:56;;;;;;;14.75;3.50;;;;;;;;;;4873830;29;20025;-96
2022/10/23 14:29:22;;;;;;;12.63;3.50;;;;;;;;;;4876686;29;20409;-96
2022/10/23 14:32:00;;;;;;;10.20;3.38;;;;;;;;;;4850334;29;20089;-96
2022/10/23 14:38:13;;;;;;;8.90;3.33;;;;;;;;;;4851406;29;20057;-96
2022/10/23 14:40:59;;;;;;;8.38;3.10;;;;;;;;;;4869320;29;20143;-96
2022/10/23 14:43:43;;;;;;;13.07;4.63;;;;;;;;;;4814891;29;20047;-96
2022/10/23 14:46:15;;;;;;;5.68;3.17;;;;;;;;;;4866833;29;20074;-96
2022/10/23 14:48:56;;;;;;;7.80;3.05;;;;;;;;;;4867714;29;20045;-96
2022/10/23 14:52:00;;;;;;;6.55;3.28;;;;;;;;;;4882288;29;20043;-96
2022/10/23 14:54:31;;;;;;;11.68;3.90;;;;;;;;;;4876661;29;20059;-96
2022/10/23 14:56:57;;;;;;;12.20;3.25;;;;;;;;;;4891033;29;20546;-95
2022/10/23 14:59:24;;;;;;;8.02;3.15;;;;;;;;;;4916543;29;20054;-96
2022/10/23 15:01:53;;;;;;;6.85;2.88;;;;;;;;;;4892511;29;20031;-96
2022/10/23 15:04:28;;;;;;;8.18;4.47;;;;;;;;;;4913769;29;20123;-96
2022/10/23 15:07:17;;;;;;;5.80;2.88;;;;;;;;;;4901143;29;20047;-96
2022/10/23 15:09:46;;;;;;;7.13;2.80;;;;;;;;;;4910218;29;20048;-96
2022/10/23 15:12:23;;;;;;;8.20;3.25;;;;;;;;;;4916753;29;20575;-96
2022/10/23 15:14:54;;;;;;;6.60;2.97;;;;;;;;;;4941705;28;20043;-96
2022/10/23 15:17:37;;;;;;;8.48;3.58;;;;;;;;;;4952510;28;20514;-96
2022/10/23 15:20:11;;;;;;;9.13;3.13;;;;;;;;;;4952786;28;20151;-96
2022/10/23 15:22:38;;;;;;;7.68;4.20;;;;;;;;;;4952681;28;20085;-96
2022/10/23 15:25:06;;;;;;;9.77;3.85;;;;;;;;;;4953671;28;20062;-95
2022/10/23 15:27:35;;;;;;;10.27;3.25;;;;;;;;;;4948491;28;20036;-96
2022/10/23 15:30:01;;;;;;;9.43;3.63;;;;;;;;;;4965135;28;20034;-95
2022/10/23 15:32:27;;;;;;;8.32;3.35;;;;;;;;;;4937149;28;20034;-96